This is the latest recevied weather packets stored in our database for station/object M0XDC. If no packets are shown the sender has not sent any weather packets the latest 10 day(s).
| Time | Temp. | Humidity | Pressure | Rain* | Wind** | Luminosity | Snow |
|---|---|---|---|---|---|---|---|
| 1788098505 | 20° C | 68% | 1006.7 hPa | 0 mm | - | - | - |
| 1788096705 | 22.22° C | 57% | 1006.9 hPa | 0 mm | - | - | - |
| 1788094905 | 22.78° C | 55% | 1006.8 hPa | 0 mm | - | - | - |
| 1788093105 | 23.33° C | 54% | 1007.1 hPa | 0 mm | - | - | - |
| 1788091305 | 22.78° C | 57% | 1007.1 hPa | 0 mm | - | - | - |
| 1788089505 | 21.11° C | 60% | 1007.5 hPa | 0 mm | - | - | - |
| 1788087705 | 22.22° C | 57% | 1007.9 hPa | 0 mm | - | - | - |
| 1788085905 | 22.22° C | 62% | 1008 hPa | 0 mm | - | - | - |
| 1788084105 | 20.56° C | 66% | 1008 hPa | 0 mm | - | - | - |
| 1788082305 | 19.44° C | 75% | 1008 hPa | 0 mm | - | - | - |
| 1788080505 | 19.44° C | 77% | 1008 hPa | 0 mm | - | - | - |
| 1788078705 | 18.89° C | 77% | 1008 hPa | 0 mm | - | - | - |
| 1788076905 | 17.78° C | 82% | 1007.9 hPa | 0 mm | - | - | - |
| 1788075105 | 17.22° C | 85% | 1007.7 hPa | 0 mm | - | - | - |
| 1788073305 | 16.67° C | 87% | 1007.6 hPa | 0 mm | - | - | - |
| 1788071505 | 16.11° C | 88% | 1007.1 hPa | 0 mm | - | - | - |
| 1788069705 | 15.56° C | 88% | 1006.6 hPa | 0 mm | - | - | - |
| 1788067905 | 16.11° C | 88% | 1006.4 hPa | 0 mm | - | - | - |
| 1788066105 | 16.11° C | 87% | 1006.2 hPa | 0 mm | - | - | - |
| 1788064305 | 16.11° C | 86% | 1006.1 hPa | 0 mm | - | - | - |
| 1788062505 | 16.11° C | 85% | 1005.9 hPa | 0 mm | - | - | - |
| 1788060717 | 16.67° C | 84% | 1005.4 hPa | 0 mm | - | - | - |
| 1788060705 | 16.67° C | 84% | 1005.4 hPa | 0 mm | - | - | - |
| 1788058905 | 16.67° C | 83% | 1005 hPa | 0 mm | - | - | - |
| 1788057105 | 17.22° C | 83% | 1004.4 hPa | 0 mm | - | - | - |
* Rain latest hour (hover to see other rain measurements)
** Current wind speed in m/s (hover to see current wind gust speed)